Malad City, Idaho
Current Conditions -  °F | °C
As of 10:51 PM on Saturday 22 Nov 2014 (Local Time) from KLGU Reporting Station
Overcast Overcast  
Wind Chill: 31°   Ceiling: 4700
Heat Index: 36°   Visibility: 10mi
Dew Point: 30°   Wind: 6mph
Humidity: 79%   Direction: 20°NNE
Pressure: 29.9"   Gusts: NA
Location:  42.19°N, 112.25°W
Report Text: KLGU 230551Z AUTO 02005KT 10SM OVC047 02/M01 A2990 RMK AO2 SLP130 T00221011 10033 20006 53018
Loading
Personal Weather Stations






























Interactive Weather Map New forecast layout! Learn more

10-Day Weather Forecast

Advertisements
Track Severe Weather on mobile